Time;durP1;ratioP1;P1;durP2;ratioP2;P2;SDS_P1;SDS_P2;PMS_P1;PMS_P2;Temp;Humidity;BMP_temperature;BMP_pressure;BME280_temperature;BME280_humidity;BME280_pressure;Samples;Min_cycle;Max_cycle;Signal;HPM_P1;HPM_P2
2022/09/08 00:00:56;;;;;;;11.28;6.58;;;;;;;9.66;52.25;100487.73;1762869;81;25644;-62
2022/09/08 00:03:27;;;;;;;13.15;6.42;;;;;;;9.63;52.08;100488.32;1743703;81;25580;-62
2022/09/08 00:06:01;;;;;;;13.83;7.20;;;;;;;9.62;51.96;100487.27;1762195;81;25617;-62
2022/09/08 00:08:28;;;;;;;12.95;6.22;;;;;;;9.64;52.28;100483.73;1732323;81;25657;-62
2022/09/08 00:10:58;;;;;;;10.20;5.58;;;;;;;9.62;52.12;100485.91;1732288;81;27708;-61
2022/09/08 00:13:27;;;;;;;9.95;5.60;;;;;;;9.59;52.38;100485.97;1746208;80;25907;-63
2022/09/08 00:15:54;;;;;;;10.93;5.40;;;;;;;9.59;52.19;100488.67;1767467;80;25561;-61
2022/09/08 00:18:22;;;;;;;11.10;7.33;;;;;;;9.58;52.12;100482.22;1733703;81;25682;-61
2022/09/08 00:20:48;;;;;;;9.75;5.53;;;;;;;9.57;52.19;100488.70;1749660;81;25641;-61
2022/09/08 00:23:14;;;;;;;13.22;5.50;;;;;;;9.55;52.35;100490.34;1736291;81;27541;-62
2022/09/08 00:25:40;;;;;;;11.48;5.50;;;;;;;9.54;52.44;100484.72;1732155;81;32795;-63
2022/09/08 00:28:06;;;;;;;12.85;5.78;;;;;;;9.50;52.18;100485.04;1731686;81;25769;-61
2022/09/08 00:30:34;;;;;;;15.88;12.55;;;;;;;9.48;52.29;100486.71;1743611;81;25567;-62
2022/09/08 00:33:01;;;;;;;10.53;6.65;;;;;;;9.49;52.44;100491.55;1741944;81;25431;-62
2022/09/08 00:35:28;;;;;;;13.22;5.95;;;;;;;9.47;52.62;100489.15;1745024;80;27621;-63
2022/09/08 00:37:54;;;;;;;9.98;5.25;;;;;;;9.44;52.55;100491.09;1775814;80;25428;-62
2022/09/08 00:40:24;;;;;;;8.75;5.12;;;;;;;9.41;52.89;100501.13;1775460;80;25599;-62
2022/09/08 00:43:02;;;;;;;9.13;5.70;;;;;;;9.37;52.48;100494.72;1742684;81;25621;-62
2022/09/08 00:45:45;;;;;;;10.18;5.92;;;;;;;9.38;52.69;100498.22;1741638;81;25405;-62
2022/09/08 00:48:16;;;;;;;11.05;5.62;;;;;;;9.38;52.73;100501.73;1749176;81;27435;-63
2022/09/08 00:50:45;;;;;;;10.08;5.97;;;;;;;9.35;52.55;100493.66;1756188;81;27249;-63
2022/09/08 00:53:15;;;;;;;22.67;7.60;;;;;;;9.32;52.50;100490.20;1762193;81;25611;-63
2022/09/08 00:55:43;;;;;;;11.73;6.28;;;;;;;9.30;52.75;100490.25;1761508;81;25769;-63
2022/09/08 00:58:09;;;;;;;19.82;7.58;;;;;;;9.28;53.11;100486.50;1747167;80;25510;-61
2022/09/08 01:00:39;;;;;;;14.33;6.20;;;;;;;9.25;52.82;100483.03;1767628;80;28135;-61
2022/09/08 01:03:12;;;;;;;17.87;6.78;;;;;;;9.20;53.20;100485.81;1744871;80;25712;-61
2022/09/08 01:05:52;;;;;;;10.80;5.67;;;;;;;9.16;53.29;100476.16;1776136;80;25533;-61
2022/09/08 01:14:17;;;;;;;9.90;5.95;;;;;;;9.10;53.46;100473.84;1742235;81;27522;-61
2022/09/08 01:16:48;;;;;;;11.15;6.10;;;;;;;9.06;53.95;100471.45;1771695;80;25658;-62
2022/09/08 01:19:28;;;;;;;11.50;6.10;;;;;;;9.03;53.96;100476.91;1744086;81;25605;-62
2022/09/08 01:22:06;;;;;;;11.50;5.65;;;;;;;9.00;54.36;100470.75;1742064;81;25737;-62
2022/09/08 01:24:58;;;;;;;13.38;5.22;;;;;;;8.98;54.30;100473.73;1643462;86;25792;-61
2022/09/08 01:27:32;;;;;;;10.78;5.35;;;;;;;8.95;54.19;100474.31;1666754;86;29648;-61
2022/09/08 01:30:06;;;;;;;10.78;5.53;;;;;;;8.93;54.58;100477.86;1666754;84;25642;-62
2022/09/08 01:32:37;;;;;;;13.03;6.08;;;;;;;8.91;54.59;100477.36;1666806;86;25445;-61
2022/09/08 01:35:06;;;;;;;10.58;6.28;;;;;;;8.90;54.59;100478.44;1666394;86;25828;-61
2022/09/08 01:37:32;;;;;;;9.78;5.60;;;;;;;8.89;54.53;100480.11;1666570;86;25462;-61
2022/09/08 01:39:58;;;;;;;9.10;5.55;;;;;;;8.87;54.52;100478.23;1707754;84;28335;-62
2022/09/08 01:42:25;;;;;;;11.12;6.12;;;;;;;8.84;54.81;100473.44;1707627;83;25619;-62
2022/09/08 01:44:51;;;;;;;9.85;5.28;;;;;;;8.83;54.94;100462.39;1707752;83;25668;-62
2022/09/08 01:47:17;;;;;;;10.70;5.72;;;;;;;8.82;54.93;100461.59;1708032;83;34924;-61
2022/09/08 01:49:43;;;;;;;9.50;5.45;;;;;;;8.81;54.90;100464.02;1711452;83;25602;-60
2022/09/08 01:52:09;;;;;;;13.13;5.45;;;;;;;8.81;55.44;100460.53;1711619;83;27529;-61
2022/09/08 01:54:35;;;;;;;8.40;5.30;;;;;;;8.81;55.42;100470.77;1709371;83;25642;-61
2022/09/08 01:57:02;;;;;;;10.70;5.12;;;;;;;8.81;55.27;100470.77;1710102;83;25504;-61
2022/09/08 01:59:28;;;;;;;10.43;4.62;;;;;;;8.81;55.29;100465.93;1700197;83;26288;-63
2022/09/08 02:01:54;;;;;;;10.03;5.35;;;;;;;8.80;55.49;100474.55;1712411;80;25442;-61
2022/09/08 02:04:20;;;;;;;12.85;5.80;;;;;;;8.79;55.63;100475.66;1741440;80;28254;-62
2022/09/08 02:06:47;;;;;;;9.28;5.62;;;;;;;8.77;55.67;100481.90;1762270;81;25576;-61
2022/09/08 02:09:13;;;;;;;8.25;5.25;;;;;;;8.74;55.63;100480.57;1768327;81;25614;-62
2022/09/08 02:11:39;;;;;;;12.63;6.45;;;;;;;8.74;55.35;100477.87;1737613;81;25521;-62
2022/09/08 02:14:06;;;;;;;8.25;4.87;;;;;;;8.73;55.51;100480.86;1756054;81;25437;-62
2022/09/08 02:16:33;;;;;;;10.53;5.70;;;;;;;8.72;56.04;100483.31;1771262;80;27538;-62
2022/09/08 02:18:59;;;;;;;12.15;5.55;;;;;;;8.72;56.04;100480.63;1737487;81;25592;-62
2022/09/08 02:21:26;;;;;;;10.30;5.25;;;;;;;8.70;56.23;100476.05;1737538;81;29645;-63
2022/09/08 02:23:54;;;;;;;10.70;5.40;;;;;;;8.68;56.12;100474.19;1750799;81;25575;-62
2022/09/08 02:26:25;;;;;;;10.25;4.47;;;;;;;8.66;56.00;100473.69;1768302;81;25517;-62
2022/09/08 02:28:53;;;;;;;11.03;5.80;;;;;;;8.65;55.89;100462.11;1768423;81;28325;-62
2022/09/08 02:31:21;;;;;;;8.30;5.22;;;;;;;8.66;55.76;100469.64;1777554;80;25547;-62
2022/09/08 02:33:48;;;;;;;10.63;5.22;;;;;;;8.65;56.04;100465.33;1777557;80;25420;-62
2022/09/08 02:36:15;;;;;;;9.43;4.90;;;;;;;8.63;55.99;100468.31;1768251;81;25599;-62
2022/09/08 02:38:41;;;;;;;13.98;5.95;;;;;;;8.60;56.17;100473.76;1741086;80;25405;-62
2022/09/08 02:41:08;;;;;;;12.30;5.83;;;;;;;8.57;56.16;100470.84;1767124;80;28374;-62
2022/09/08 02:43:35;;;;;;;10.90;5.30;;;;;;;8.54;56.23;100480.30;1765685;80;25676;-63
2022/09/08 02:46:07;;;;;;;7.35;4.70;;;;;;;8.51;56.35;100480.91;1760847;80;25680;-63
2022/09/08 02:48:35;;;;;;;12.03;5.05;;;;;;;8.47;56.58;100476.38;1747376;81;27720;-63
2022/09/08 02:51:04;;;;;;;9.90;5.87;;;;;;;8.45;56.56;100478.02;1759341;81;25736;-62
2022/09/08 02:53:31;;;;;;;8.73;5.35;;;;;;;8.42;56.85;100478.55;1737811;81;27674;-62
2022/09/08 02:55:59;;;;;;;11.25;5.28;;;;;;;8.40;56.82;100482.88;1763293;81;26040;-61
2022/09/08 02:58:26;;;;;;;10.40;5.72;;;;;;;8.36;56.86;100477.00;1754141;81;25589;-62
2022/09/08 03:00:52;;;;;;;11.50;5.45;;;;;;;8.35;57.00;100482.16;1737359;81;25669;-62
2022/09/08 03:03:21;;;;;;;10.03;4.97;;;;;;;8.32;56.82;100476.78;1737555;81;25626;-62
2022/09/08 03:05:47;;;;;;;10.35;5.33;;;;;;;8.30;56.74;100480.31;1737575;81;27483;-61
2022/09/08 03:08:13;;;;;;;7.30;5.08;;;;;;;8.27;57.38;100481.45;1777347;80;26017;-62
2022/09/08 03:10:39;;;;;;;10.03;4.62;;;;;;;8.25;56.87;100486.33;1749862;81;25776;-63
2022/09/08 03:13:06;;;;;;;7.37;4.78;;;;;;;8.22;56.90;100491.20;1750455;81;25745;-62
2022/09/08 03:15:33;;;;;;;7.45;5.10;;;;;;;8.18;57.03;100488.81;1756220;81;25472;-61
2022/09/08 03:18:03;;;;;;;7.33;4.72;;;;;;;8.16;57.25;100492.34;1721683;80;28317;-63
2022/09/08 03:20:28;;;;;;;10.05;4.90;;;;;;;8.11;57.54;100488.36;1754873;81;25814;-61
2022/09/08 03:22:54;;;;;;;11.18;5.20;;;;;;;8.07;57.36;100481.14;1769384;80;25572;-61
2022/09/08 03:25:20;;;;;;;8.53;4.65;;;;;;;8.02;57.62;100483.37;1772739;80;26357;-61
2022/09/08 03:27:47;;;;;;;9.45;5.25;;;;;;;7.99;57.44;100483.94;1753647;80;25395;-61
2022/09/08 03:30:15;;;;;;;9.93;5.33;;;;;;;7.96;57.43;100483.95;1766438;81;27534;-61
2022/09/08 03:32:43;;;;;;;8.40;4.50;;;;;;;7.93;57.69;100482.38;1775633;80;25625;-62
2022/09/08 03:35:12;;;;;;;8.80;4.85;;;;;;;7.89;57.83;100474.06;1743141;80;25549;-62
2022/09/08 03:37:39;;;;;;;8.98;4.37;;;;;;;7.85;57.95;100476.53;1746532;80;25486;-62
2022/09/08 03:40:25;;;;;;;9.93;4.53;;;;;;;7.83;57.67;100469.81;1737657;81;25685;-62
2022/09/08 03:42:51;;;;;;;8.88;4.60;;;;;;;7.80;58.05;100467.72;1748192;81;27493;-63
2022/09/08 03:45:18;;;;;;;11.43;4.90;;;;;;;7.75;58.23;100459.14;1757345;80;25701;-62
2022/09/08 03:47:45;;;;;;;9.43;4.70;;;;;;;7.71;58.00;100451.36;1768269;81;25605;-62
2022/09/08 03:50:16;;;;;;;12.43;4.53;;;;;;;7.71;58.15;100455.95;1768283;81;25590;-63
2022/09/08 03:52:42;;;;;;;;;;;;;;;7.67;58.15;100465.94;1770882;80;25742;-63
2022/09/08 03:55:10;;;;;;;10.45;5.65;;;;;;;7.66;58.64;100471.60;1768255;80;27556;-62
2022/09/08 03:57:37;;;;;;;18.82;8.13;;;;;;;7.63;58.62;100469.50;1768093;80;25841;-63
2022/09/08 04:00:08;;;;;;;14.13;6.87;;;;;;;7.61;58.68;100466.27;1768312;81;25613;-62
2022/09/08 04:02:35;;;;;;;13.20;7.58;;;;;;;7.60;58.64;100474.90;1768254;81;25540;-62
2022/09/08 04:05:02;;;;;;;30.35;16.27;;;;;;;7.59;58.69;100474.63;1768275;80;25458;-62
2022/09/08 04:07:30;;;;;;;42.23;21.57;;;;;;;7.58;59.07;100478.98;1768233;81;27548;-63
2022/09/08 04:09:57;;;;;;;33.00;19.92;;;;;;;7.57;58.99;100483.53;1768160;80;25403;-63
2022/09/08 04:12:25;;;;;;;38.42;19.00;;;;;;;7.56;59.33;100486.52;1768090;80;25659;-62
2022/09/08 04:14:52;;;;;;;28.70;14.78;;;;;;;7.54;59.00;100485.44;1768219;79;25719;-62
2022/09/08 04:17:21;;;;;;;20.70;10.48;;;;;;;7.54;59.49;100492.73;1768322;80;25708;-61
2022/09/08 04:19:50;;;;;;;17.05;10.38;;;;;;;7.53;59.35;100492.48;1768541;80;27444;-62
2022/09/08 04:22:19;;;;;;;30.75;16.65;;;;;;;7.51;59.67;100488.73;1768409;80;25385;-61
2022/09/08 04:24:46;;;;;;;45.55;22.55;;;;;;;7.52;59.82;100484.93;1768581;80;25399;-62
2022/09/08 04:27:14;;;;;;;40.48;20.08;;;;;;;7.51;59.88;100477.96;1768105;80;25481;-63
2022/09/08 04:29:40;;;;;;;39.73;18.92;;;;;;;7.52;59.81;100477.41;1783719;79;25503;-61
2022/09/08 04:32:07;;;;;;;32.25;14.23;;;;;;;7.53;59.82;100481.72;1768233;80;29668;-63
2022/09/08 04:34:35;;;;;;;25.50;11.03;;;;;;;7.53;59.67;100474.98;1768347;80;26558;-62
2022/09/08 04:37:03;;;;;;;22.90;11.18;;;;;;;7.54;59.80;100480.06;1772649;80;25697;-61
2022/09/08 04:39:32;;;;;;;19.40;9.68;;;;;;;7.57;60.09;100480.05;1768365;81;25651;-62
2022/09/08 04:41:58;;;;;;;22.45;9.85;;;;;;;7.57;60.34;100467.94;1759772;80;25827;-61
2022/09/08 04:44:24;;;;;;;20.43;9.70;;;;;;;7.59;60.31;100462.52;1752168;81;28201;-61
2022/09/08 04:46:51;;;;;;;17.67;7.95;;;;;;;7.60;60.30;100458.75;1752177;81;25442;-62
2022/09/08 04:49:17;;;;;;;10.95;5.08;;;;;;;7.63;60.47;100458.18;1752123;81;25590;-62
2022/09/08 04:51:43;;;;;;;12.50;4.70;;;;;;;7.64;60.17;100445.52;1752242;81;31381;-61
2022/09/08 04:54:10;;;;;;;10.75;4.90;;;;;;;7.66;60.38;100441.47;1752549;81;25426;-60
2022/09/08 04:56:36;;;;;;;11.85;4.12;;;;;;;7.68;60.50;100443.87;1752224;81;27544;-62
2022/09/08 04:59:04;;;;;;;9.88;5.17;;;;;;;7.71;60.50;100445.97;1752018;81;25598;-61
2022/09/08 05:01:37;;;;;;;7.42;4.60;;;;;;;7.74;60.47;100451.34;1743825;81;25613;-61
2022/09/08 05:04:05;;;;;;;15.58;7.80;;;;;;;7.80;60.60;100460.43;1734664;81;25474;-61
2022/09/08 05:06:34;;;;;;;15.75;6.60;;;;;;;7.86;60.73;100466.55;1744567;81;25455;-62
2022/09/08 05:09:01;;;;;;;10.08;5.00;;;;;;;7.94;60.89;100465.93;1723851;81;27542;-62
2022/09/08 05:11:31;;;;;;;11.05;4.78;;;;;;;8.01;60.75;100468.28;1753791;80;25610;-63
2022/09/08 05:13:58;;;;;;;6.67;4.17;;;;;;;8.09;60.60;100469.52;1745100;80;25554;-63
2022/09/08 05:16:28;;;;;;;12.47;4.20;;;;;;;8.15;60.71;100466.48;1749210;81;26192;-64
2022/09/08 05:18:58;;;;;;;7.72;3.87;;;;;;;8.27;60.70;100474.70;1748030;81;25547;-64
2022/09/08 05:21:26;;;;;;;15.20;3.95;;;;;;;8.39;60.71;100480.48;1753536;80;27469;-65
2022/09/08 05:23:55;;;;;;;11.10;3.62;;;;;;;8.49;60.64;100488.45;1732754;81;25461;-64
2022/09/08 05:26:24;;;;;;;12.78;3.90;;;;;;;8.58;60.60;100480.52;1736635;81;25718;-64
2022/09/08 05:28:51;;;;;;;5.15;2.77;;;;;;;8.70;60.50;100476.87;1763790;81;25475;-64
2022/09/08 05:31:24;;;;;;;6.92;3.35;;;;;;;8.82;60.42;100472.38;1734799;81;25607;-65
2022/09/08 05:33:52;;;;;;;10.95;3.80;;;;;;;8.95;60.62;100479.70;1721976;81;27502;-64
2022/09/08 05:36:23;;;;;;;16.10;4.30;;;;;;;9.11;60.64;100483.55;1720049;82;25478;-64
2022/09/08 05:38:51;;;;;;;16.90;4.83;;;;;;;9.26;60.51;100485.17;1721409;82;25756;-64
2022/09/08 05:41:18;;;;;;;12.03;5.22;;;;;;;9.44;60.53;100483.55;1718921;80;25592;-64
2022/09/08 05:43:44;;;;;;;17.92;5.45;;;;;;;9.59;60.52;100483.83;1772756;78;25619;-64
2022/09/08 05:46:11;;;;;;;22.32;5.78;;;;;;;9.73;60.62;100475.98;1779306;80;27550;-64
2022/09/08 05:48:37;;;;;;;21.95;6.22;;;;;;;9.91;60.53;100482.97;1800855;78;25539;-65
2022/09/08 05:51:09;;;;;;;19.50;7.25;;;;;;;10.07;60.47;100485.61;1805080;78;25712;-65
2022/09/08 05:53:37;;;;;;;17.27;6.00;;;;;;;10.24;60.42;100474.75;1804873;78;25628;-63
2022/09/08 05:56:07;;;;;;;32.20;5.90;;;;;;;10.44;60.41;100477.05;1781149;78;25688;-64
2022/09/08 05:58:34;;;;;;;22.98;7.95;;;;;;;10.63;60.38;100474.20;1781801;79;28132;-63
2022/09/08 06:01:05;;;;;;;19.50;6.10;;;;;;;10.83;60.00;100477.56;1789352;79;25758;-63
2022/09/08 06:03:32;;;;;;;17.07;5.53;;;;;;;11.06;59.72;100486.48;1798877;79;25734;-63
2022/09/08 06:06:07;;;;;;;20.45;5.60;;;;;;;11.31;59.72;100483.72;1809892;79;25533;-63
2022/09/08 06:08:35;;;;;;;17.02;4.87;;;;;;;11.54;59.39;100476.38;1798683;79;25462;-63
2022/09/08 06:11:03;;;;;;;30.20;5.73;;;;;;;11.81;59.22;100467.00;1807291;79;27516;-64
2022/09/08 06:13:31;;;;;;;17.20;5.42;;;;;;;12.08;58.68;100474.14;1770818;79;25864;-64
2022/09/08 06:16:03;;;;;;;27.30;5.33;;;;;;;12.33;57.87;100472.62;1799779;79;25417;-64
2022/09/08 06:18:33;;;;;;;28.02;5.60;;;;;;;12.60;57.71;100471.54;1809646;79;25441;-64
2022/09/08 06:21:08;;;;;;;21.57;5.12;;;;;;;12.89;57.13;100476.34;1798719;79;25384;-64
2022/09/08 06:23:35;;;;;;;10.90;3.80;;;;;;;13.20;56.34;100474.55;1797361;79;27542;-64
2022/09/08 06:26:30;;;;;;;17.65;5.85;;;;;;;13.48;55.14;100473.63;1810250;79;25578;-64
2022/09/08 06:29:32;;;;;;;11.55;3.77;;;;;;;13.74;54.30;100470.84;1798789;79;25402;-64
2022/09/08 06:32:16;;;;;;;13.88;3.58;;;;;;;14.00;53.22;100457.13;1774215;79;25668;-64
2022/09/08 06:34:46;;;;;;;13.30;3.45;;;;;;;14.33;52.67;100459.17;1793680;79;26474;-64
2022/09/08 06:37:32;;;;;;;17.15;3.37;;;;;;;14.63;52.29;100459.73;1773126;79;27539;-64
2022/09/08 06:40:10;;;;;;;21.70;4.80;;;;;;;14.90;51.73;100460.55;1750884;80;25595;-65
2022/09/08 06:42:50;;;;;;;19.02;5.60;;;;;;;15.19;51.09;100460.75;1757699;81;25711;-64
2022/09/08 06:45:36;;;;;;;6.87;3.52;;;;;;;15.42;50.45;100464.67;1778575;80;25557;-63
2022/09/08 06:48:23;;;;;;;8.30;3.35;;;;;;;15.66;48.98;100465.31;1733791;81;25464;-63
2022/09/08 06:51:27;;;;;;;4.60;2.70;;;;;;;15.93;47.89;100454.88;1754198;81;27474;-64
2022/09/08 06:54:10;;;;;;;8.65;3.30;;;;;;;16.17;47.95;100462.83;1758513;81;25558;-66
2022/09/08 06:57:00;;;;;;;9.98;3.20;;;;;;;16.44;47.02;100454.48;1757405;80;25727;-65
2022/09/08 06:59:35;;;;;;;6.17;2.70;;;;;;;16.63;46.07;100463.42;1758515;81;25517;-64
2022/09/08 07:02:37;;;;;;;7.17;3.10;;;;;;;16.83;45.59;100463.61;1758407;81;25625;-66
2022/09/08 07:05:36;;;;;;;8.18;3.20;;;;;;;17.05;44.72;100481.42;1758677;81;27657;-66
2022/09/08 07:08:35;;;;;;;8.37;2.93;;;;;;;17.27;43.79;100481.44;1758754;81;25903;-66
2022/09/08 07:11:22;;;;;;;8.65;3.25;;;;;;;17.44;43.26;100491.27;1758627;81;25506;-66
2022/09/08 07:13:56;;;;;;;11.75;3.27;;;;;;;17.65;43.32;100484.17;1758556;81;25447;-66
2022/09/08 07:16:55;;;;;;;8.43;2.98;;;;;;;17.90;42.79;100484.24;1758050;81;25603;-65
2022/09/08 07:19:55;;;;;;;5.87;2.80;;;;;;;18.14;42.16;100481.09;1758687;81;27729;-65
2022/09/08 07:22:33;;;;;;;11.25;3.02;;;;;;;18.28;41.05;100482.77;1758511;81;25760;-65
2022/09/08 07:25:23;;;;;;;9.73;3.30;;;;;;;18.45;40.62;100488.43;1758484;80;25514;-65
2022/09/08 07:28:04;;;;;;;5.55;2.90;;;;;;;18.73;41.34;100503.92;1758488;81;25580;-65
2022/09/08 07:30:33;;;;;;;8.38;2.90;;;;;;;19.11;40.16;100500.20;1739198;81;25611;-66
2022/09/08 07:33:16;;;;;;;5.10;2.80;;;;;;;19.46;39.90;100485.56;1758635;81;27540;-65
2022/09/08 07:35:54;;;;;;;8.35;2.95;;;;;;;19.73;38.95;100479.00;1756059;81;25696;-65
2022/09/08 07:38:36;;;;;;;10.00;2.98;;;;;;;19.85;38.56;100479.98;1739529;80;25391;-65
2022/09/08 07:41:05;;;;;;;9.90;3.27;;;;;;;20.04;38.25;100479.91;1757704;80;26312;-65
2022/09/08 07:43:32;;;;;;;10.28;3.47;;;;;;;20.26;37.99;100482.95;1763559;80;25644;-65
2022/09/08 07:46:34;;;;;;;3.70;2.77;;;;;;;20.39;37.30;100480.20;1764412;80;27524;-65
2022/09/08 07:49:41;;;;;;;6.45;3.05;;;;;;;20.57;37.63;100470.84;1764487;79;26129;-65
2022/09/08 07:52:21;;;;;;;6.72;3.10;;;;;;;20.88;36.90;100471.64;1764436;80;25444;-65
2022/09/08 07:55:08;;;;;;;7.80;4.40;;;;;;;20.96;35.91;100476.06;1764798;81;26227;-65
2022/09/08 07:57:57;;;;;;;5.85;2.40;;;;;;;21.02;36.01;100492.42;1786337;79;25570;-64
2022/09/08 08:01:12;;;;;;;6.30;2.87;;;;;;;21.15;34.76;100477.84;1789295;78;27477;-63
2022/09/08 08:04:06;;;;;;;4.28;2.20;;;;;;;21.24;34.84;100493.45;1788122;78;25711;-66
2022/09/08 08:06:48;;;;;;;5.00;2.72;;;;;;;21.56;34.90;100500.48;1781368;79;25596;-66
2022/09/08 08:09:41;;;;;;;3.70;2.10;;;;;;;21.74;33.71;100497.31;1781128;79;25647;-66
2022/09/08 08:12:47;;;;;;;5.00;2.72;;;;;;;21.89;33.81;100496.83;1781651;79;25445;-65
2022/09/08 08:15:27;;;;;;;8.23;2.95;;;;;;;22.16;33.69;100507.06;1789464;78;26630;-67
2022/09/08 08:18:17;;;;;;;4.12;2.40;;;;;;;22.36;32.64;100504.87;1786307;78;25638;-66
2022/09/08 08:21:13;;;;;;;5.42;2.70;;;;;;;22.54;31.81;100511.06;1786385;80;25557;-66
2022/09/08 08:24:06;;;;;;;5.28;2.35;;;;;;;22.47;30.47;100511.81;1785693;78;27618;-66
2022/09/08 08:26:38;;;;;;;5.05;2.27;;;;;;;22.46;31.30;100509.44;1786304;79;25658;-64
2022/09/08 08:29:25;;;;;;;3.52;2.65;;;;;;;22.67;31.92;100508.19;1786531;79;27512;-65
2022/09/08 08:32:14;;;;;;;10.23;2.25;;;;;;;23.01;31.65;100494.14;1786128;79;25464;-65
2022/09/08 08:34:49;;;;;;;7.70;2.45;;;;;;;23.18;30.78;100482.99;1786357;79;25615;-64
2022/09/08 08:37:22;;;;;;;5.53;2.05;;;;;;;23.26;30.98;100479.67;1784828;79;25551;-64
2022/09/08 08:39:53;;;;;;;5.83;2.75;;;;;;;23.55;30.99;100483.83;1785099;78;25629;-64
2022/09/08 08:42:42;;;;;;;15.88;2.52;;;;;;;23.91;30.61;100479.75;1786295;78;28416;-66
2022/09/08 08:45:32;;;;;;;3.67;2.22;;;;;;;24.19;29.93;100471.99;1770129;79;25686;-66
2022/09/08 08:48:18;;;;;;;5.60;2.72;;;;;;;24.41;29.59;100471.34;1770535;79;25571;-65
2022/09/08 08:50:53;;;;;;;6.80;2.33;;;;;;;24.45;29.08;100465.80;1726973;83;25698;-65
2022/09/08 08:53:57;;;;;;;4.37;2.50;;;;;;;24.34;29.19;100465.84;1769205;79;25791;-65
2022/09/08 08:56:41;;;;;;;3.40;2.30;;;;;;;24.41;28.82;100477.66;1770441;79;27533;-65
2022/09/08 08:59:45;;;;;;;5.40;2.65;;;;;;;24.42;28.51;100475.09;1769545;79;27379;-64
2022/09/08 09:02:22;;;;;;;6.00;2.83;;;;;;;24.60;28.71;100473.70;1770429;79;25659;-64
2022/09/08 09:05:12;;;;;;;5.05;2.60;;;;;;;24.79;28.24;100471.05;1770492;79;25724;-64
2022/09/08 09:07:58;;;;;;;6.10;2.65;;;;;;;25.00;28.68;100468.59;1712401;82;25627;-65
2022/09/08 09:10:51;;;;;;;4.65;2.65;;;;;;;25.15;27.76;100457.02;1712578;82;27542;-65
2022/09/08 09:14:16;;;;;;;8.78;3.15;;;;;;;25.32;27.67;100467.81;1692533;82;25483;-65
2022/09/08 09:17:39;;;;;;;4.08;2.62;;;;;;;25.41;27.19;100478.42;1712490;82;25748;-65
2022/09/08 09:20:43;;;;;;;7.55;2.60;;;;;;;25.44;27.45;100472.09;1713869;82;25655;-65
2022/09/08 09:23:35;;;;;;;4.72;2.65;;;;;;;25.73;27.69;100460.78;1723212;81;25747;-65
2022/09/08 09:26:09;;;;;;;6.97;2.70;;;;;;;26.04;27.25;100452.00;1692832;84;27672;-65
2022/09/08 09:29:16;;;;;;;7.40;3.00;;;;;;;25.86;26.09;100454.93;1690508;82;25633;-65
2022/09/08 09:32:09;;;;;;;3.33;2.20;;;;;;;25.56;26.53;100452.00;1676104;82;25767;-64
2022/09/08 09:34:49;;;;;;;8.28;2.60;;;;;;;25.62;26.82;100451.77;1694323;84;26187;-64
2022/09/08 09:37:59;;;;;;;3.37;2.12;;;;;;;25.69;26.80;100442.00;1690599;82;25547;-64
2022/09/08 09:41:02;;;;;;;4.22;2.42;;;;;;;25.95;26.93;100433.70;1699170;81;27698;-64
2022/09/08 09:43:54;;;;;;;7.67;2.42;;;;;;;26.30;26.62;100426.79;1722345;81;25745;-64
2022/09/08 09:46:32;;;;;;;8.80;3.15;;;;;;;26.41;26.22;100427.47;1741399;80;26309;-65
2022/09/08 09:49:13;;;;;;;8.88;2.50;;;;;;;26.59;26.42;100418.91;1683883;85;25716;-65
2022/09/08 09:52:06;;;;;;;6.55;2.60;;;;;;;26.98;26.27;100414.84;1683316;85;25350;-65
2022/09/08 09:55:01;;;;;;;3.85;2.17;;;;;;;27.25;25.66;100413.44;1683628;84;27562;-65
2022/09/08 09:58:09;;;;;;;4.37;2.10;;;;;;;27.35;24.14;100410.34;1682214;84;25968;-65
2022/09/08 10:00:57;;;;;;;6.43;4.67;;;;;;;27.14;24.28;100408.06;1683621;85;25592;-66
2022/09/08 10:03:54;;;;;;;4.75;2.30;;;;;;;27.02;24.44;100408.03;1683626;85;25712;-65
2022/09/08 10:06:27;;;;;;;2.75;1.80;;;;;;;27.33;24.30;100406.59;1683142;84;25644;-67
2022/09/08 10:09:31;;;;;;;5.75;2.17;;;;;;;27.31;23.92;100403.46;1683047;84;29715;-67
2022/09/08 10:12:34;;;;;;;3.92;1.92;;;;;;;27.34;23.77;100405.38;1684286;85;25968;-65
2022/09/08 10:15:42;;;;;;;5.67;2.30;;;;;;;27.46;23.30;100401.83;1683285;84;25662;-65
2022/09/08 10:18:54;;;;;;;4.37;2.25;;;;;;;27.59;23.82;100413.91;1683519;85;25702;-65
2022/09/08 10:21:55;;;;;;;5.70;2.15;;;;;;;27.97;22.96;100411.48;1683208;85;25739;-65
2022/09/08 10:24:45;;;;;;;8.15;2.12;;;;;;;27.42;22.35;100413.61;1683531;85;27559;-65
2022/09/08 10:27:34;;;;;;;7.47;1.90;;;;;;;26.98;22.75;100412.84;1728444;80;25752;-65
2022/09/08 10:30:21;;;;;;;6.60;1.95;;;;;;;26.96;23.43;100399.21;1759812;80;25632;-65
2022/09/08 10:33:16;;;;;;;10.43;2.45;;;;;;;27.07;23.21;100410.92;1760655;80;26139;-67
2022/09/08 10:35:47;;;;;;;6.30;2.22;;;;;;;26.79;23.40;100412.91;1760714;80;26170;-66
2022/09/08 10:38:45;;;;;;;7.15;2.15;;;;;;;26.51;23.33;100413.26;1744294;80;28245;-65
2022/09/08 10:41:38;;;;;;;6.40;2.10;;;;;;;26.50;23.67;100412.48;1754334;80;25757;-65
2022/09/08 10:44:43;;;;;;;6.37;2.00;;;;;;;26.70;23.76;100418.20;1781496;79;25382;-66
2022/09/08 10:47:34;;;;;;;2.30;2.10;;;;;;;26.69;23.56;100416.62;1786959;78;25619;-66
2022/09/08 10:50:24;;;;;;;5.37;1.98;;;;;;;26.88;23.39;100413.78;1787300;79;25596;-66
2022/09/08 10:53:19;;;;;;;8.43;2.05;;;;;;;27.03;23.06;100418.53;1784808;78;27572;-65
2022/09/08 10:56:26;;;;;;;4.40;2.15;;;;;;;26.90;23.33;100407.23;1786734;78;25767;-65
2022/09/08 10:59:10;;;;;;;5.90;2.55;;;;;;;26.78;22.82;100405.81;1786122;78;25702;-66
2022/09/08 11:02:09;;;;;;;4.53;1.87;;;;;;;26.40;22.42;100410.02;1787356;80;26164;-66
2022/09/08 11:05:30;;;;;;;4.87;1.80;;;;;;;26.07;22.97;100402.69;1763076;80;25690;-66
2022/09/08 11:08:07;;;;;;;2.50;1.92;;;;;;;26.25;23.36;100396.92;1787048;79;27546;-65
2022/09/08 11:11:01;;;;;;;10.25;1.90;;;;;;;26.72;23.13;100388.66;1786683;79;25733;-66
2022/09/08 11:13:59;;;;;;;8.53;1.70;;;;;;;27.06;22.73;100390.55;1787025;79;25705;-66
2022/09/08 11:17:03;;;;;;;5.95;1.98;;;;;;;27.47;22.92;100382.58;1787364;79;35203;-66
2022/09/08 11:19:46;;;;;;;5.12;2.05;;;;;;;27.88;21.79;100385.61;1786638;78;25606;-66
2022/09/08 11:22:37;;;;;;;4.22;2.00;;;;;;;28.07;21.84;100377.91;1787021;80;27835;-65
2022/09/08 11:25:47;;;;;;;4.22;1.57;;;;;;;28.13;20.87;100376.20;1787093;78;25989;-66
2022/09/08 11:28:55;;;;;;;2.45;1.90;;;;;;;27.79;21.30;100368.11;1786943;79;26197;-65
2022/09/08 11:32:05;;;;;;;5.03;1.62;;;;;;;27.99;21.30;100363.97;1787380;78;25523;-66
2022/09/08 11:35:07;;;;;;;3.15;1.50;;;;;;;28.13;21.52;100360.91;1785697;79;25610;-66
2022/09/08 11:38:14;;;;;;;4.20;2.05;;;;;;;28.59;21.48;100353.41;1778957;80;29645;-66
2022/09/08 11:41:15;;;;;;;4.35;1.75;;;;;;;28.72;21.18;100351.53;1782409;79;25559;-66
2022/09/08 11:44:14;;;;;;;4.67;2.25;;;;;;;28.77;21.32;100355.80;1787007;79;25529;-67
2022/09/08 11:46:52;;;;;;;5.37;1.87;;;;;;;29.07;20.95;100347.73;1783876;80;25577;-66
2022/09/08 11:49:42;;;;;;;5.08;1.85;;;;;;;29.09;20.85;100356.44;1787246;79;25657;-67
2022/09/08 11:52:52;;;;;;;6.35;1.92;;;;;;;29.03;20.52;100346.44;1787041;80;27514;-68
2022/09/08 11:55:49;;;;;;;3.05;1.60;;;;;;;28.98;20.61;100341.39;1773720;79;25769;-65
2022/09/08 11:58:39;;;;;;;4.08;2.10;;;;;;;29.06;20.85;100343.38;1786840;79;25792;-65
2022/09/08 12:01:54;;;;;;;2.02;1.32;;;;;;;29.36;20.46;100350.61;1786829;78;26155;-65
2022/09/08 12:04:51;;;;;;;4.58;2.90;;;;;;;29.34;19.95;100355.07;1765210;79;25389;-65
2022/09/08 12:07:46;;;;;;;5.60;1.80;;;;;;;29.08;20.02;100347.12;1787193;79;27651;-66
2022/09/08 12:10:45;;;;;;;2.80;1.55;;;;;;;29.10;20.23;100344.67;1773439;80;25650;-66
2022/09/08 12:13:49;;;;;;;4.60;1.60;;;;;;;29.01;19.92;100329.39;1779503;78;25710;-66
2022/09/08 12:16:30;;;;;;;3.35;1.70;;;;;;;29.08;20.32;100329.80;1765787;80;25678;-66
2022/09/08 12:19:28;;;;;;;6.80;1.50;;;;;;;29.32;19.70;100336.00;1795155;78;25668;-66
2022/09/08 12:22:21;;;;;;;5.90;1.52;;;;;;;29.06;19.30;100312.75;1789026;78;27667;-67
2022/09/08 12:25:13;;;;;;;2.42;1.45;;;;;;;28.66;19.86;100313.70;1808287;78;25734;-66